createdAt,value
2024-03-05T00:01:40.504Z,4.30
2024-03-05T00:04:08.158Z,4.30
2024-03-05T00:06:35.332Z,4.20
2024-03-05T00:09:02.455Z,4.10
2024-03-05T00:11:29.612Z,4.00
2024-03-05T00:13:56.997Z,4.00
2024-03-05T00:16:24.668Z,3.90
2024-03-05T00:18:51.942Z,4.00
2024-03-05T00:21:19.168Z,3.90
2024-03-05T00:23:46.321Z,4.00
2024-03-05T00:26:19.404Z,4.00
2024-03-05T00:28:47.387Z,4.00
2024-03-05T00:31:14.776Z,4.00
2024-03-05T00:33:41.970Z,4.00
2024-03-05T00:36:09.428Z,4.00
2024-03-05T00:38:36.664Z,4.00
2024-03-05T00:41:04.247Z,3.90
2024-03-05T00:43:31.655Z,3.90
2024-03-05T00:45:58.758Z,3.80
2024-03-05T00:48:26.041Z,3.90
2024-03-05T00:50:53.297Z,3.90
2024-03-05T00:53:21.754Z,3.90
2024-03-05T00:55:49.029Z,3.90
2024-03-05T00:58:16.367Z,3.90
2024-03-05T01:00:44.510Z,3.90
2024-03-05T01:03:14.320Z,4.00
2024-03-05T01:05:41.473Z,4.00
2024-03-05T01:08:08.895Z,3.90
2024-03-05T01:10:36.000Z,3.90
2024-03-05T01:13:03.502Z,4.00
2024-03-05T01:15:30.637Z,4.00
2024-03-05T01:17:58.696Z,3.90
2024-03-05T01:20:25.966Z,3.90
2024-03-05T01:22:53.208Z,4.00
2024-03-05T01:25:20.611Z,4.00
2024-03-05T01:27:47.756Z,4.10
2024-03-05T01:30:15.693Z,4.20
2024-03-05T01:32:45.097Z,4.20
2024-03-05T01:35:12.754Z,4.20
2024-03-05T01:37:41.141Z,4.20
2024-03-05T01:40:10.348Z,4.20
2024-03-05T01:42:37.546Z,4.30
2024-03-05T01:45:05.152Z,4.30
2024-03-05T01:47:33.802Z,4.30
2024-03-05T01:50:05.154Z,4.20
2024-03-05T01:52:33.035Z,4.30
2024-03-05T01:55:07.774Z,4.20
2024-03-05T01:57:35.833Z,4.20
2024-03-05T02:00:04.312Z,4.20
2024-03-05T02:02:32.613Z,4.20
2024-03-05T02:05:00.530Z,4.20
2024-03-05T02:07:28.652Z,4.30
2024-03-05T02:09:56.997Z,4.30
2024-03-05T02:12:24.982Z,4.30
2024-03-05T02:14:53.864Z,4.40
2024-03-05T02:17:21.612Z,4.30
2024-03-05T02:19:52.190Z,4.30
2024-03-05T02:22:22.048Z,4.30
2024-03-05T02:24:49.197Z,4.30
2024-03-05T02:27:23.818Z,4.40
2024-03-05T02:29:54.894Z,4.40
2024-03-05T02:32:22.509Z,4.50
2024-03-05T02:34:50.564Z,4.50
2024-03-05T02:37:17.835Z,4.60
2024-03-05T02:39:45.108Z,4.60
2024-03-05T02:42:12.307Z,4.50
2024-03-05T02:44:39.471Z,4.60
2024-03-05T02:47:08.335Z,4.60
2024-03-05T02:49:35.596Z,4.60
2024-03-05T02:52:02.791Z,4.60
2024-03-05T02:54:29.996Z,4.70
2024-03-05T02:56:57.054Z,4.70
2024-03-05T02:59:25.326Z,4.70
2024-03-05T03:01:53.056Z,4.70
2024-03-05T03:04:20.287Z,4.70
2024-03-05T03:06:47.579Z,4.70
2024-03-05T03:09:14.814Z,4.80
2024-03-05T03:11:43.055Z,4.80
2024-03-05T03:14:10.642Z,4.80
2024-03-05T03:16:37.921Z,4.80
2024-03-05T03:19:06.012Z,4.70
2024-03-05T03:21:33.453Z,4.80
2024-03-05T03:24:00.715Z,4.70
2024-03-05T03:26:28.253Z,4.80
2024-03-05T03:28:56.095Z,4.80
2024-03-05T03:31:24.252Z,4.80
2024-03-05T03:33:51.393Z,4.70
2024-03-05T03:36:28.385Z,4.80
2024-03-05T03:38:55.450Z,4.80
2024-03-05T03:41:22.667Z,4.80
2024-03-05T03:43:50.128Z,4.80
2024-03-05T03:46:17.380Z,4.80
2024-03-05T03:48:44.523Z,4.80
2024-03-05T03:51:11.799Z,4.80
2024-03-05T03:53:38.984Z,4.80
2024-03-05T03:56:06.789Z,4.80
2024-03-05T03:58:34.308Z,4.80
2024-03-05T04:01:01.707Z,4.70
2024-03-05T04:03:29.693Z,4.60
2024-03-05T04:05:57.390Z,4.70
2024-03-05T04:08:24.628Z,4.70
2024-03-05T04:10:51.953Z,4.70
2024-03-05T04:13:19.287Z,4.70
2024-03-05T04:15:46.676Z,4.70
2024-03-05T04:18:14.273Z,4.70
2024-03-05T04:20:42.046Z,4.80
2024-03-05T04:23:11.674Z,4.90
2024-03-05T04:25:41.638Z,4.80
2024-03-05T04:28:13.708Z,4.80
2024-03-05T04:30:43.440Z,4.80
2024-03-05T04:33:12.323Z,4.90
2024-03-05T04:35:39.671Z,4.90
2024-03-05T04:38:06.797Z,4.90
2024-03-05T04:40:38.912Z,4.90
2024-03-05T04:43:06.940Z,4.70
2024-03-05T04:45:35.626Z,4.70
2024-03-05T04:48:03.637Z,4.60
2024-03-05T04:50:31.463Z,4.60
2024-03-05T04:52:58.981Z,4.70
2024-03-05T04:55:26.613Z,4.70
2024-03-05T04:57:54.017Z,4.70
2024-03-05T05:00:21.935Z,4.70
2024-03-05T05:02:53.965Z,4.80
2024-03-05T05:05:22.921Z,4.70
2024-03-05T05:07:50.403Z,4.70
2024-03-05T05:10:17.956Z,4.80
2024-03-05T05:12:46.195Z,4.70
2024-03-05T05:15:13.887Z,4.80
2024-03-05T05:17:41.872Z,4.70
2024-03-05T05:20:10.516Z,4.70
2024-03-05T05:22:43.326Z,4.70
2024-03-05T05:25:10.686Z,4.70
2024-03-05T05:27:38.209Z,4.70
2024-03-05T05:30:12.996Z,4.80
2024-03-05T05:32:41.647Z,4.70
2024-03-05T05:35:10.113Z,4.80
2024-03-05T05:37:38.596Z,4.90
2024-03-05T05:40:12.086Z,4.80
2024-03-05T05:42:42.241Z,4.90
2024-03-05T05:45:13.646Z,4.90
2024-03-05T05:47:50.393Z,4.80
2024-03-05T05:50:19.143Z,4.90
2024-03-05T05:52:52.046Z,4.90
2024-03-05T05:55:22.236Z,4.90
2024-03-05T05:57:50.649Z,4.80
2024-03-05T06:00:40.871Z,4.90
2024-03-05T06:03:09.636Z,4.90
2024-03-05T06:05:39.626Z,4.90
2024-03-05T06:08:15.990Z,4.90
2024-03-05T06:10:43.612Z,4.90
2024-03-05T06:13:12.307Z,4.90
2024-03-05T06:15:39.960Z,4.90
2024-03-05T06:18:07.641Z,5.00
2024-03-05T06:20:35.014Z,4.90
2024-03-05T06:23:02.584Z,5.00
2024-03-05T06:25:30.092Z,4.90
2024-03-05T06:27:57.736Z,5.00
2024-03-05T06:30:26.397Z,5.00
2024-03-05T06:32:54.132Z,5.00
2024-03-05T06:35:25.451Z,5.00
2024-03-05T06:37:54.905Z,5.00
2024-03-05T06:40:25.290Z,5.00
2024-03-05T06:42:53.913Z,5.00
2024-03-05T06:45:29.200Z,5.00
2024-03-05T06:48:10.524Z,5.00
2024-03-05T06:50:46.126Z,5.00
2024-03-05T06:53:32.115Z,5.00
2024-03-05T06:56:18.880Z,5.10
2024-03-05T06:58:49.145Z,5.10
2024-03-05T07:01:17.309Z,5.10
2024-03-05T07:03:44.625Z,5.10
2024-03-05T07:06:14.489Z,5.10
2024-03-05T07:08:44.521Z,5.10
2024-03-05T07:11:13.925Z,5.10
2024-03-05T07:13:45.373Z,5.10
2024-03-05T07:16:17.938Z,5.20
2024-03-05T07:18:56.230Z,5.20
2024-03-05T07:21:25.935Z,5.20
2024-03-05T07:23:55.322Z,5.20
2024-03-05T07:26:24.751Z,5.10
2024-03-05T07:28:53.209Z,5.10
2024-03-05T07:31:20.731Z,5.10
2024-03-05T07:33:52.817Z,5.10
2024-03-05T07:36:22.161Z,5.20
2024-03-05T07:38:49.449Z,5.10
2024-03-05T07:41:26.587Z,5.20
2024-03-05T07:44:02.085Z,5.30
2024-03-05T07:46:31.241Z,5.20
2024-03-05T07:48:58.911Z,5.30
2024-03-05T07:51:29.189Z,5.30
2024-03-05T07:54:01.827Z,5.30
2024-03-05T07:56:29.229Z,5.40
2024-03-05T07:58:57.321Z,5.40
2024-03-05T08:01:25.516Z,5.40
2024-03-05T08:03:53.247Z,5.40
2024-03-05T08:06:20.361Z,5.50
2024-03-05T08:08:47.784Z,5.50
2024-03-05T08:11:15.028Z,5.40
2024-03-05T08:13:42.182Z,5.50
2024-03-05T08:16:11.129Z,5.50
2024-03-05T08:18:38.298Z,5.50
2024-03-05T08:21:05.638Z,5.50
2024-03-05T08:23:32.810Z,5.50
2024-03-05T08:26:00.178Z,5.60
2024-03-05T08:28:27.393Z,5.60
2024-03-05T08:30:55.340Z,5.70
2024-03-05T08:33:25.200Z,5.70
2024-03-05T08:35:53.193Z,5.70
2024-03-05T08:38:20.492Z,5.70
2024-03-05T08:40:50.117Z,5.70
2024-03-05T08:43:17.410Z,5.80
2024-03-05T08:45:44.638Z,5.70
2024-03-05T08:48:12.176Z,5.60
2024-03-05T08:50:41.168Z,5.70
2024-03-05T08:53:09.636Z,5.80
2024-03-05T08:55:37.290Z,5.80
2024-03-05T08:58:05.224Z,5.90
2024-03-05T09:00:42.164Z,5.90
2024-03-05T09:03:13.415Z,5.90
2024-03-05T09:05:44.317Z,5.80
2024-03-05T09:08:14.258Z,5.70
2024-03-05T09:10:42.125Z,5.70
2024-03-05T09:13:09.514Z,5.70
2024-03-05T09:15:41.412Z,5.70
2024-03-05T09:18:14.072Z,5.70
2024-03-05T09:20:43.388Z,5.70
2024-03-05T09:23:11.203Z,5.60
2024-03-05T09:25:40.094Z,5.60
2024-03-05T09:28:07.237Z,5.60
2024-03-05T09:30:35.289Z,5.70
2024-03-05T09:33:03.658Z,5.70
2024-03-05T09:35:31.629Z,5.70
2024-03-05T09:37:58.904Z,5.80
2024-03-05T09:40:26.229Z,5.80
2024-03-05T09:42:59.623Z,5.70
2024-03-05T09:45:31.737Z,5.60
2024-03-05T09:48:00.457Z,5.60
2024-03-05T09:50:28.136Z,5.60
2024-03-05T09:52:55.653Z,5.40
2024-03-05T09:55:23.037Z,5.40
2024-03-05T09:57:50.596Z,5.50
2024-03-05T10:00:21.915Z,5.40
2024-03-05T10:02:53.405Z,5.40
2024-03-05T10:05:21.465Z,5.50
2024-03-05T10:07:50.170Z,5.60
2024-03-05T10:10:22.974Z,5.60
2024-03-05T10:12:53.902Z,5.70
2024-03-05T10:15:27.094Z,5.70
2024-03-05T10:17:56.753Z,5.70
2024-03-05T10:20:35.520Z,5.70
2024-03-05T10:23:09.403Z,5.90
2024-03-05T10:25:37.852Z,5.90
2024-03-05T10:28:07.543Z,6.00
2024-03-05T10:30:37.249Z,6.00
2024-03-05T10:33:09.146Z,5.90
2024-03-05T10:35:39.685Z,6.00
2024-03-05T10:38:15.641Z,6.10
2024-03-05T10:40:46.275Z,6.20
2024-03-05T10:43:19.890Z,6.20
2024-03-05T10:45:49.167Z,6.10
2024-03-05T10:48:20.116Z,6.10
2024-03-05T10:50:51.383Z,6.10
2024-03-05T10:53:20.185Z,6.10
2024-03-05T10:55:52.824Z,6.20
2024-03-05T10:58:40.136Z,6.10
2024-03-05T11:01:10.492Z,6.00
2024-03-05T11:03:42.027Z,6.10
2024-03-05T11:06:10.890Z,6.00
2024-03-05T11:08:38.784Z,6.00
2024-03-05T11:11:19.054Z,6.00
2024-03-05T11:13:50.356Z,5.90
2024-03-05T11:16:18.310Z,6.00
2024-03-05T11:18:50.314Z,5.90
2024-03-05T11:21:18.877Z,5.90
2024-03-05T11:23:59.368Z,5.90
2024-03-05T11:26:30.245Z,5.90
2024-03-05T11:29:21.497Z,5.90
2024-03-05T11:31:49.076Z,6.00
2024-03-05T11:34:19.406Z,5.80
2024-03-05T11:37:05.913Z,5.90
2024-03-05T11:39:33.580Z,6.00
2024-03-05T11:42:01.191Z,6.00
2024-03-05T11:44:42.351Z,6.00
2024-03-05T11:47:09.904Z,6.10
2024-03-05T11:49:38.729Z,6.20
2024-03-05T11:52:07.345Z,6.20
2024-03-05T11:54:37.182Z,6.20
2024-03-05T11:57:05.151Z,6.20
2024-03-05T11:59:37.686Z,6.30
2024-03-05T12:02:12.233Z,6.30
2024-03-05T12:04:40.616Z,6.30
2024-03-05T12:07:11.096Z,6.30
2024-03-05T12:09:38.642Z,6.30
2024-03-05T12:12:12.485Z,6.20
2024-03-05T12:14:54.681Z,6.30
2024-03-05T12:17:25.161Z,6.30
2024-03-05T12:20:10.598Z,6.20
2024-03-05T12:22:41.406Z,6.30
2024-03-05T12:25:09.778Z,6.30
2024-03-05T12:27:39.666Z,6.30
2024-03-05T12:30:12.071Z,6.30
2024-03-05T12:32:43.574Z,6.30
2024-03-05T12:35:14.940Z,6.20
2024-03-05T12:37:42.860Z,6.30
2024-03-05T12:40:18.494Z,6.20
2024-03-05T12:42:50.527Z,6.30
2024-03-05T12:45:22.728Z,6.30
2024-03-05T12:48:03.356Z,6.40
2024-03-05T12:50:31.967Z,6.40
2024-03-05T12:53:03.789Z,6.40
2024-03-05T12:55:34.787Z,6.30
2024-03-05T12:58:19.685Z,6.20
2024-03-05T13:00:46.898Z,6.00
2024-03-05T13:03:15.212Z,6.00
2024-03-05T13:05:43.750Z,6.00
2024-03-05T13:08:11.181Z,5.90
2024-03-05T13:10:39.260Z,5.80
2024-03-05T13:13:06.402Z,5.80
2024-03-05T13:15:34.198Z,5.80
2024-03-05T13:18:01.514Z,5.70
2024-03-05T13:20:29.551Z,5.70
2024-03-05T13:22:56.914Z,5.80
2024-03-05T13:25:29.884Z,5.60
2024-03-05T13:27:57.006Z,5.50
2024-03-05T13:30:28.131Z,5.40
2024-03-05T13:33:02.566Z,5.40
2024-03-05T13:35:31.851Z,5.40
2024-03-05T13:37:59.513Z,5.40
2024-03-05T13:40:26.833Z,5.40
2024-03-05T13:42:53.910Z,5.50
2024-03-05T13:45:21.155Z,5.40
2024-03-05T13:47:48.500Z,5.50
2024-03-05T13:50:18.543Z,5.50
2024-03-05T13:52:49.928Z,5.50
2024-03-05T13:55:17.858Z,5.50
2024-03-05T13:57:45.813Z,5.50
2024-03-05T14:00:21.262Z,5.50
2024-03-05T14:02:49.726Z,5.50
2024-03-05T14:05:17.333Z,5.50
2024-03-05T14:07:45.716Z,5.40
2024-03-05T14:10:16.702Z,5.40
2024-03-05T14:12:44.023Z,5.40
2024-03-05T14:15:21.786Z,5.30
2024-03-05T14:17:50.415Z,5.30
2024-03-05T14:20:24.994Z,5.30
2024-03-05T14:22:52.660Z,5.30
2024-03-05T14:25:19.872Z,5.30
2024-03-05T14:27:49.305Z,5.30
2024-03-05T14:30:19.737Z,5.30
2024-03-05T14:32:47.575Z,5.30
2024-03-05T14:35:15.128Z,5.30
2024-03-05T14:37:43.729Z,5.30
2024-03-05T14:40:12.019Z,5.30
2024-03-05T14:42:39.646Z,5.30
2024-03-05T14:45:08.893Z,5.30
2024-03-05T14:47:35.982Z,5.30
2024-03-05T14:50:06.030Z,5.30
2024-03-05T14:52:33.219Z,5.30
2024-03-05T14:55:01.835Z,5.30
2024-03-05T14:57:29.668Z,5.40
2024-03-05T14:59:56.964Z,5.40
2024-03-05T15:02:24.264Z,5.40
2024-03-05T15:04:51.763Z,5.40
2024-03-05T15:07:19.069Z,5.40
2024-03-05T15:09:46.868Z,5.40
2024-03-05T15:12:14.034Z,5.40
2024-03-05T15:14:43.495Z,5.40
2024-03-05T15:17:11.923Z,5.50
2024-03-05T15:19:39.327Z,5.50
2024-03-05T15:22:09.776Z,5.60
2024-03-05T15:24:37.655Z,5.70
2024-03-05T15:27:06.272Z,5.80
2024-03-05T15:29:34.097Z,5.80
2024-03-05T15:32:02.836Z,5.90
2024-03-05T15:34:30.313Z,5.90
2024-03-05T15:36:57.892Z,5.90
2024-03-05T15:39:25.262Z,6.00
2024-03-05T15:41:52.659Z,6.00
2024-03-05T15:44:19.871Z,6.10
2024-03-05T15:46:50.055Z,6.10
2024-03-05T15:49:17.348Z,6.10
2024-03-05T15:51:45.515Z,6.00
2024-03-05T15:54:14.757Z,6.00
2024-03-05T15:56:59.230Z,6.10
2024-03-05T16:00:02.295Z,6.10
2024-03-05T16:02:29.678Z,6.10
2024-03-05T16:05:13.978Z,6.10
2024-03-05T16:07:48.635Z,6.10
2024-03-05T16:10:16.025Z,6.10
2024-03-05T16:12:44.717Z,6.10
2024-03-05T16:15:17.027Z,6.10
2024-03-05T16:17:45.046Z,6.00
2024-03-05T16:20:19.854Z,6.00
2024-03-05T16:22:54.001Z,6.00
2024-03-05T16:25:26.347Z,6.00
2024-03-05T16:27:56.863Z,6.00
2024-03-05T16:30:28.587Z,6.00
2024-03-05T16:32:57.092Z,5.90
2024-03-05T16:35:28.749Z,5.90
2024-03-05T16:37:56.446Z,5.90
2024-03-05T16:40:25.414Z,5.90
2024-03-05T16:43:01.416Z,5.90
2024-03-05T16:45:29.129Z,5.90
2024-03-05T16:48:01.994Z,6.00
2024-03-05T16:50:30.952Z,6.10
2024-03-05T16:52:59.803Z,6.00
2024-03-05T16:55:28.713Z,6.00
2024-03-05T16:58:00.764Z,6.00
2024-03-05T17:00:34.600Z,6.10
2024-03-05T17:03:09.001Z,6.20
2024-03-05T17:05:42.907Z,6.20
2024-03-05T17:08:16.062Z,6.30
2024-03-05T17:10:45.636Z,6.30
2024-03-05T17:13:20.060Z,6.30
2024-03-05T17:15:57.737Z,6.30
2024-03-05T17:18:25.613Z,6.30
2024-03-05T17:20:54.591Z,6.30
2024-03-05T17:23:25.933Z,6.40
2024-03-05T17:25:57.628Z,6.40
2024-03-05T17:28:27.903Z,6.40
2024-03-05T17:30:57.303Z,6.40
2024-03-05T17:33:25.070Z,6.40
2024-03-05T17:35:56.217Z,6.40
2024-03-05T17:38:25.362Z,6.40
2024-03-05T17:40:53.827Z,6.40
2024-03-05T17:43:21.088Z,6.40
2024-03-05T17:45:49.328Z,6.40
2024-03-05T17:48:16.830Z,6.30
2024-03-05T17:50:46.979Z,6.30
2024-03-05T17:53:14.449Z,6.30
2024-03-05T17:55:41.780Z,6.40
2024-03-05T17:58:09.634Z,6.50
2024-03-05T18:00:46.627Z,6.70
2024-03-05T18:03:23.873Z,6.80
2024-03-05T18:05:51.591Z,6.90
2024-03-05T18:08:19.180Z,6.80
2024-03-05T18:10:48.137Z,6.80
2024-03-05T18:13:19.591Z,6.80
2024-03-05T18:15:49.539Z,6.70
2024-03-05T18:18:19.561Z,6.60
2024-03-05T18:20:47.532Z,6.60
2024-03-05T18:23:14.786Z,6.70
2024-03-05T18:25:46.090Z,6.70
2024-03-05T18:28:26.435Z,6.70
2024-03-05T18:30:56.224Z,6.70
2024-03-05T18:33:23.760Z,6.70
2024-03-05T18:35:53.320Z,6.60
2024-03-05T18:38:28.455Z,6.60
2024-03-05T18:41:01.652Z,6.50
2024-03-05T18:43:31.933Z,6.50
2024-03-05T18:46:02.604Z,6.40
2024-03-05T18:48:30.873Z,6.40
2024-03-05T18:51:00.649Z,6.40
2024-03-05T18:53:39.372Z,6.50
2024-03-05T18:56:13.965Z,6.40
2024-03-05T18:58:47.647Z,6.30
2024-03-05T19:01:17.283Z,6.40
2024-03-05T19:03:45.270Z,6.30
2024-03-05T19:06:12.614Z,6.30
2024-03-05T19:08:40.014Z,6.30
2024-03-05T19:11:11.062Z,6.30
2024-03-05T19:13:39.344Z,6.30
2024-03-05T19:16:07.717Z,6.30
2024-03-05T19:18:35.246Z,6.30
2024-03-05T19:21:03.223Z,6.40
2024-03-05T19:23:30.435Z,6.40
2024-03-05T19:25:57.616Z,6.40
2024-03-05T19:28:26.550Z,6.40
2024-03-05T19:30:54.201Z,6.40
2024-03-05T19:33:21.505Z,6.40
2024-03-05T19:35:50.751Z,6.50
2024-03-05T19:38:17.940Z,6.50
2024-03-05T19:40:46.602Z,6.50
2024-03-05T19:43:13.758Z,6.50
2024-03-05T19:45:41.934Z,6.50
2024-03-05T19:48:10.661Z,6.50
2024-03-05T19:50:38.159Z,6.60
2024-03-05T19:53:06.056Z,6.60
2024-03-05T19:55:34.929Z,6.70
2024-03-05T19:58:02.207Z,6.70
2024-03-05T20:00:29.733Z,6.70
2024-03-05T20:02:57.053Z,6.70
2024-03-05T20:05:24.623Z,6.70
2024-03-05T20:07:55.175Z,6.80
2024-03-05T20:10:22.868Z,6.80
2024-03-05T20:12:50.134Z,6.80
2024-03-05T20:15:17.624Z,6.80
2024-03-05T20:17:45.467Z,6.80
2024-03-05T20:20:19.623Z,6.80
2024-03-05T20:22:49.238Z,6.70
2024-03-05T20:25:22.809Z,6.70
2024-03-05T20:27:52.035Z,6.70
2024-03-05T20:30:19.969Z,6.70
2024-03-05T20:32:47.435Z,6.70
2024-03-05T20:35:18.270Z,6.70
2024-03-05T20:37:51.426Z,6.70
2024-03-05T20:40:23.943Z,6.80
2024-03-05T20:42:51.564Z,6.80
2024-03-05T20:45:21.798Z,6.90
2024-03-05T20:47:49.652Z,6.80
2024-03-05T20:50:17.087Z,6.80
2024-03-05T20:52:44.638Z,6.90
2024-03-05T20:55:12.019Z,7.00
2024-03-05T20:57:40.434Z,7.00
2024-03-05T21:00:13.573Z,7.00
2024-03-05T21:02:42.482Z,7.10
2024-03-05T21:05:11.410Z,7.20
2024-03-05T21:07:39.890Z,7.20
2024-03-05T21:10:11.214Z,7.30
2024-03-05T21:12:39.789Z,7.30
2024-03-05T21:15:12.487Z,7.20
2024-03-05T21:17:41.749Z,7.20
2024-03-05T21:20:13.479Z,7.20
2024-03-05T21:22:43.493Z,7.20
2024-03-05T21:25:11.965Z,7.20
2024-03-05T21:27:41.220Z,7.20
2024-03-05T21:30:13.060Z,7.30
2024-03-05T21:32:43.481Z,7.30
2024-03-05T21:35:11.348Z,7.30
2024-03-05T21:37:42.646Z,7.30
2024-03-05T21:40:14.801Z,7.30
2024-03-05T21:42:45.328Z,7.30
2024-03-05T21:45:16.027Z,7.30
2024-03-05T21:47:47.369Z,7.30
2024-03-05T21:50:14.895Z,7.30
2024-03-05T21:52:46.439Z,7.30
2024-03-05T21:55:14.028Z,7.40
2024-03-05T21:57:41.587Z,7.40
2024-03-05T22:00:12.458Z,7.30
2024-03-05T22:02:44.726Z,7.30
2024-03-05T22:05:13.867Z,7.40
2024-03-05T22:07:41.598Z,7.40
2024-03-05T22:10:10.054Z,7.40
2024-03-05T22:12:41.983Z,7.50
2024-03-05T22:15:11.253Z,7.50
2024-03-05T22:17:39.574Z,7.40
2024-03-05T22:20:09.442Z,7.40
2024-03-05T22:22:37.351Z,7.40
2024-03-05T22:25:07.856Z,7.40
2024-03-05T22:27:35.672Z,7.40
2024-03-05T22:30:04.270Z,7.40
2024-03-05T22:32:31.643Z,7.40
2024-03-05T22:34:59.510Z,7.40
2024-03-05T22:37:27.022Z,7.50
2024-03-05T22:39:54.402Z,7.40
2024-03-05T22:42:21.715Z,7.50
2024-03-05T22:44:49.002Z,7.50
2024-03-05T22:47:16.373Z,7.40
2024-03-05T22:49:46.437Z,7.40
2024-03-05T22:52:15.072Z,7.50
2024-03-05T22:54:42.478Z,7.50
2024-03-05T22:57:09.954Z,7.40
2024-03-05T22:59:37.355Z,7.40
2024-03-05T23:02:05.954Z,7.40
2024-03-05T23:04:33.886Z,7.50
2024-03-05T23:07:01.161Z,7.50
2024-03-05T23:09:28.453Z,7.50
2024-03-05T23:11:55.856Z,7.40
2024-03-05T23:14:23.219Z,7.40
2024-03-05T23:16:51.827Z,7.40
2024-03-05T23:19:19.146Z,7.40
2024-03-05T23:21:46.377Z,7.50
2024-03-05T23:24:13.561Z,7.50
2024-03-05T23:26:40.647Z,7.60
2024-03-05T23:29:07.940Z,7.60
2024-03-05T23:31:35.114Z,7.60
2024-03-05T23:34:02.412Z,7.50
2024-03-05T23:36:29.712Z,7.50
2024-03-05T23:38:56.893Z,7.50
2024-03-05T23:41:31.664Z,7.50
2024-03-05T23:43:59.972Z,7.60
2024-03-05T23:46:27.232Z,7.60
2024-03-05T23:48:54.521Z,7.60
2024-03-05T23:51:21.671Z,7.60
2024-03-05T23:53:48.957Z,7.60
2024-03-05T23:56:16.232Z,7.50
2024-03-05T23:58:43.699Z,7.50
